Terminal Aerodrome Forecast
Issued by NWS

Home | Current Version | Previous Version | Text Only | Print | Product List | Glossary On
Versions: 1 2 3 4 5 6 7 8 9 10 11 12 13 14 15 16 17 18 19
987
FTUS45 KVEF 251339 AAB
TAFHND
TAF AMD
KHND 251339Z 2514/2612 VRB06KT P6SM VCTS BKN030CB OVC080
      TEMPO 2514/2516 5SM SHRA FEW015 OVC030
     FM252000 20012KT P6SM VCSH FEW030 SCT080 BKN150
     FM260100 20012KT P6SM SCT100 BKN200
     FM260800 VRB06KT P6SM SCT150 BKN200=

USA.gov is the U.S. government's official web portal to all federal, state and local government web resources and services.